Time;durP1;ratioP1;P1;durP2;ratioP2;P2;SDS_P1;SDS_P2;PMS_P1;PMS_P2;Temp;Humidity;BMP_temperature;BMP_pressure;BME280_temperature;BME280_humidity;BME280_pressure;Samples;Min_cycle;Max_cycle;Signal;HPM_P1;HPM_P2
2024/01/08 00:00:13;;;;;;;5.72;3.58;;;-0.10;99.90;;;;;;5058619;28;20495;-48
2024/01/08 00:02:38;;;;;;;6.03;3.83;;;-0.20;99.90;;;;;;5059799;28;20081;-49
2024/01/08 00:05:04;;;;;;;4.78;3.35;;;-0.10;99.90;;;;;;5062746;28;20040;-49
2024/01/08 00:07:30;;;;;;;10.48;3.95;;;-0.20;99.90;;;;;;5060261;28;20040;-49
2024/01/08 00:09:56;;;;;;;7.82;3.83;;;-0.20;99.90;;;;;;5060712;28;20036;-48
2024/01/08 00:12:21;;;;;;;9.43;3.85;;;-0.20;99.90;;;;;;5058785;28;20041;-50
2024/01/08 00:14:49;;;;;;;6.90;3.80;;;-0.20;99.90;;;;;;5061203;28;20475;-49
2024/01/08 00:17:14;;;;;;;4.28;3.28;;;-0.20;99.90;;;;;;5063379;28;20103;-48
2024/01/08 00:19:40;;;;;;;6.03;3.80;;;-0.20;99.90;;;;;;5061665;28;20470;-50
2024/01/08 00:22:06;;;;;;;9.07;4.25;;;-0.30;99.90;;;;;;5060157;28;20463;-47
2024/01/08 00:24:31;;;;;;;8.30;4.22;;;-0.20;99.90;;;;;;5066291;28;20054;-48
2024/01/08 00:26:57;;;;;;;6.45;3.80;;;-0.40;99.90;;;;;;5062039;28;20483;-49
2024/01/08 00:29:23;;;;;;;7.70;3.75;;;-0.40;99.90;;;;;;5058473;28;20079;-48
2024/01/08 00:31:48;;;;;;;8.75;4.60;;;-0.50;99.90;;;;;;5060709;28;20074;-49
2024/01/08 00:34:14;;;;;;;7.43;3.88;;;-0.50;99.90;;;;;;5062634;28;20048;-49
2024/01/08 00:36:41;;;;;;;11.23;3.90;;;-0.50;99.90;;;;;;5062487;28;20120;-50
2024/01/08 00:39:09;;;;;;;6.60;3.67;;;-0.60;99.90;;;;;;5059020;28;20070;-49
2024/01/08 00:41:35;;;;;;;5.65;3.78;;;-0.60;99.90;;;;;;5062197;28;20561;-47
2024/01/08 00:44:01;;;;;;;11.98;4.63;;;-0.50;99.90;;;;;;5059161;28;20073;-50
2024/01/08 00:46:26;;;;;;;7.50;4.13;;;-0.70;99.90;;;;;;5061352;28;20509;-49
2024/01/08 00:48:52;;;;;;;7.85;4.10;;;-0.70;99.90;;;;;;5053964;28;20032;-48
2024/01/08 00:51:18;;;;;;;7.75;4.45;;;-0.70;99.90;;;;;;5058768;28;20043;-50
2024/01/08 00:53:44;;;;;;;8.30;4.20;;;-0.80;99.90;;;;;;5059063;28;20044;-50
2024/01/08 00:56:10;;;;;;;5.85;3.83;;;-0.80;99.90;;;;;;5062511;28;20044;-50
2024/01/08 00:58:36;;;;;;;6.35;3.63;;;-0.80;99.90;;;;;;5061977;28;20710;-48
2024/01/08 01:01:03;;;;;;;7.72;4.88;;;-0.90;99.90;;;;;;5061187;28;20401;-48
2024/01/08 01:03:29;;;;;;;7.20;4.13;;;-0.90;99.90;;;;;;5057191;28;20048;-46
2024/01/08 01:05:56;;;;;;;5.80;3.72;;;-0.90;99.90;;;;;;5063664;28;20043;-50
2024/01/08 01:08:21;;;;;;;5.65;3.70;;;-0.90;99.90;;;;;;5061596;28;20055;-48
2024/01/08 01:10:47;;;;;;;7.70;4.35;;;-1.00;99.90;;;;;;5062275;28;20040;-47
2024/01/08 01:13:13;;;;;;;6.95;4.32;;;-1.00;99.90;;;;;;5060452;28;20072;-49
2024/01/08 01:15:39;;;;;;;6.32;4.57;;;-1.00;99.90;;;;;;5063166;28;20572;-48
2024/01/08 01:18:05;;;;;;;6.32;4.13;;;-1.00;99.90;;;;;;5059391;28;20041;-46
2024/01/08 01:20:31;;;;;;;7.00;4.75;;;-1.10;99.90;;;;;;5060501;28;20338;-47
2024/01/08 01:22:56;;;;;;;7.85;4.43;;;-1.10;99.90;;;;;;5062315;28;20586;-47
2024/01/08 01:25:22;;;;;;;12.40;4.80;;;-1.00;99.90;;;;;;5038994;28;20501;-50
2024/01/08 01:27:48;;;;;;;5.60;3.95;;;-1.10;99.90;;;;;;5062675;28;20499;-47
2024/01/08 01:30:14;;;;;;;6.68;4.35;;;-1.00;99.90;;;;;;5053413;28;20067;-46
2024/01/08 01:32:39;;;;;;;7.40;4.40;;;-1.00;99.90;;;;;;5056589;28;20082;-48
2024/01/08 01:35:06;;;;;;;7.55;4.95;;;-0.90;99.90;;;;;;5063279;28;20028;-49
2024/01/08 01:37:31;;;;;;;8.30;4.80;;;-1.00;99.90;;;;;;5066493;28;20045;-48
2024/01/08 01:39:57;;;;;;;6.00;4.03;;;-0.90;99.90;;;;;;5061495;28;20040;-48
2024/01/08 01:42:23;;;;;;;6.25;4.30;;;-0.90;99.90;;;;;;5056370;28;20083;-51
2024/01/08 01:44:49;;;;;;;8.98;4.88;;;-0.90;99.90;;;;;;5066491;28;20125;-52
2024/01/08 01:47:15;;;;;;;11.02;4.82;;;-0.90;99.90;;;;;;5066703;28;20076;-50
2024/01/08 01:49:41;;;;;;;10.57;5.55;;;-0.90;99.90;;;;;;5047386;28;20052;-49
2024/01/08 01:52:08;;;;;;;9.15;4.65;;;-0.70;99.90;;;;;;5060109;28;20063;-49
2024/01/08 01:54:35;;;;;;;8.75;5.35;;;-0.80;99.90;;;;;;5066436;28;20051;-49
2024/01/08 01:57:02;;;;;;;12.05;5.40;;;-0.70;99.90;;;;;;5064676;28;20040;-48
2024/01/08 01:59:28;;;;;;;10.85;5.03;;;-0.70;99.90;;;;;;5063884;28;20507;-49
2024/01/08 02:01:56;;;;;;;8.80;4.80;;;-0.70;99.90;;;;;;5041614;28;20119;-47
2024/01/08 02:04:24;;;;;;;7.32;4.80;;;-0.70;99.90;;;;;;5063186;28;20048;-48
2024/01/08 02:06:51;;;;;;;8.68;4.78;;;-0.60;99.90;;;;;;5061853;28;20040;-52
2024/01/08 02:09:18;;;;;;;12.02;5.00;;;-0.60;99.90;;;;;;5064298;28;20040;-50
2024/01/08 02:11:44;;;;;;;9.23;5.45;;;-0.60;99.90;;;;;;5059282;28;20252;-47
2024/01/08 02:14:13;;;;;;;9.35;5.28;;;-0.60;99.90;;;;;;5061339;28;20037;-52
2024/01/08 02:16:39;;;;;;;8.15;4.63;;;-0.60;99.90;;;;;;5045746;28;20489;-47
2024/01/08 02:19:05;;;;;;;9.02;5.43;;;-0.60;99.90;;;;;;5060917;28;20045;-47
2024/01/08 02:21:31;;;;;;;9.48;5.80;;;-0.60;99.90;;;;;;5060264;28;20076;-50
2024/01/08 02:23:57;;;;;;;9.43;5.47;;;-0.60;99.90;;;;;;5065136;28;20043;-50
2024/01/08 02:26:23;;;;;;;9.00;5.10;;;-0.50;99.90;;;;;;5065006;28;20472;-49
2024/01/08 02:28:49;;;;;;;12.57;5.47;;;-0.50;99.90;;;;;;5060640;28;20178;-48
2024/01/08 02:31:14;;;;;;;7.35;5.15;;;-0.40;99.90;;;;;;5063183;28;20414;-49
2024/01/08 02:33:40;;;;;;;8.80;5.32;;;-0.40;99.90;;;;;;5062244;28;20529;-50
2024/01/08 02:36:06;;;;;;;8.93;6.07;;;-0.40;99.90;;;;;;5064328;28;20105;-51
2024/01/08 02:38:32;;;;;;;10.75;5.90;;;-0.40;99.90;;;;;;5048861;28;20507;-51
2024/01/08 02:40:58;;;;;;;8.57;5.78;;;-0.40;99.90;;;;;;5064541;28;20120;-49
2024/01/08 02:43:24;;;;;;;8.48;5.90;;;-0.40;99.90;;;;;;5064384;28;20235;-51
2024/01/08 02:45:50;;;;;;;8.40;5.35;;;-0.40;99.90;;;;;;5061734;28;20037;-50
2024/01/08 02:48:16;;;;;;;10.18;5.60;;;-0.30;99.90;;;;;;5029683;28;20492;-49
2024/01/08 02:50:42;;;;;;;10.95;6.10;;;-0.30;99.90;;;;;;5065456;28;20044;-49
2024/01/08 02:53:08;;;;;;;10.13;5.90;;;-0.30;99.90;;;;;;5063839;28;20139;-48
2024/01/08 02:55:33;;;;;;;8.23;5.40;;;-0.20;99.90;;;;;;5059386;28;20072;-49
2024/01/08 02:58:03;;;;;;;12.70;6.70;;;-0.20;99.90;;;;;;5064260;28;20049;-50
2024/01/08 03:00:29;;;;;;;9.10;5.85;;;-0.20;99.90;;;;;;5062953;28;20495;-49
2024/01/08 03:02:55;;;;;;;10.73;5.20;;;0.00;99.90;;;;;;5063897;28;20428;-49
2024/01/08 03:05:20;;;;;;;10.05;4.85;;;-0.10;99.90;;;;;;5064146;28;20481;-47
2024/01/08 03:07:46;;;;;;;6.80;4.15;;;-0.10;99.90;;;;;;5063644;28;20096;-47
2024/01/08 03:10:12;;;;;;;10.23;4.55;;;-0.10;99.90;;;;;;5064481;28;20399;-47
2024/01/08 03:12:38;;;;;;;5.53;3.97;;;0.00;99.90;;;;;;5062425;28;20036;-48
2024/01/08 03:15:04;;;;;;;8.13;4.60;;;0.00;99.90;;;;;;5056277;28;20053;-49
2024/01/08 03:17:30;;;;;;;5.38;4.15;;;0.00;99.90;;;;;;5058813;28;20564;-47
2024/01/08 03:19:56;;;;;;;7.43;4.60;;;0.00;99.90;;;;;;5059621;28;20036;-52
2024/01/08 03:22:21;;;;;;;7.47;4.47;;;0.10;99.90;;;;;;5065218;28;20044;-49
2024/01/08 03:24:48;;;;;;;10.07;4.88;;;0.20;99.90;;;;;;5062305;28;20113;-47
2024/01/08 03:27:13;;;;;;;7.70;4.50;;;0.10;99.90;;;;;;5064787;28;20036;-50
2024/01/08 03:29:40;;;;;;;8.40;5.00;;;0.10;99.90;;;;;;5041398;28;20103;-50
2024/01/08 03:32:06;;;;;;;10.52;5.22;;;0.00;99.90;;;;;;5063477;28;20502;-49
2024/01/08 03:34:33;;;;;;;6.00;4.20;;;0.00;99.90;;;;;;5057240;28;20415;-52
2024/01/08 03:36:59;;;;;;;8.10;5.07;;;0.00;99.90;;;;;;5061081;28;20052;-49
2024/01/08 03:39:25;;;;;;;9.43;4.95;;;0.10;99.90;;;;;;5061553;28;20044;-48
2024/01/08 03:41:50;;;;;;;8.43;5.00;;;0.10;99.90;;;;;;5062372;28;20052;-50
2024/01/08 03:44:16;;;;;;;8.52;4.82;;;0.10;99.90;;;;;;5058694;28;20043;-47
2024/01/08 03:46:42;;;;;;;8.23;4.78;;;0.10;99.90;;;;;;5062988;28;20040;-49
2024/01/08 03:49:08;;;;;;;8.20;4.15;;;0.10;99.90;;;;;;5044407;28;20036;-49
2024/01/08 03:51:34;;;;;;;7.65;4.60;;;0.00;99.90;;;;;;5053031;28;20086;-49
2024/01/08 03:54:00;;;;;;;9.95;4.60;;;0.00;99.90;;;;;;5062304;28;20048;-53
2024/01/08 03:56:26;;;;;;;7.90;5.18;;;0.00;99.90;;;;;;5060496;28;20047;-48
2024/01/08 03:58:52;;;;;;;7.47;5.18;;;0.00;99.90;;;;;;5053141;28;20044;-47
2024/01/08 04:01:17;;;;;;;8.02;5.05;;;0.00;99.90;;;;;;5049915;28;20037;-49
2024/01/08 04:03:43;;;;;;;7.38;4.57;;;0.00;99.90;;;;;;5051514;28;20072;-49
2024/01/08 04:06:09;;;;;;;6.90;4.35;;;0.00;99.90;;;;;;5051578;28;20037;-50
2024/01/08 04:08:35;;;;;;;5.95;3.95;;;0.00;99.90;;;;;;5059736;28;20099;-52
2024/01/08 04:11:01;;;;;;;8.10;4.93;;;0.00;99.90;;;;;;5063854;28;20241;-49
2024/01/08 04:13:26;;;;;;;16.65;4.68;;;0.00;99.90;;;;;;5043946;28;20182;-51
2024/01/08 04:15:52;;;;;;;9.82;4.53;;;0.00;99.90;;;;;;5047317;28;20113;-47
2024/01/08 04:18:18;;;;;;;10.18;4.47;;;0.00;99.90;;;;;;5059544;28;20056;-48
2024/01/08 04:20:44;;;;;;;6.40;3.90;;;0.00;99.90;;;;;;5060535;28;20071;-49
2024/01/08 04:23:10;;;;;;;6.28;4.10;;;-0.10;99.90;;;;;;5059290;28;20148;-48
2024/01/08 04:25:36;;;;;;;9.07;4.47;;;-0.10;99.90;;;;;;5054137;28;20033;-50
2024/01/08 04:28:01;;;;;;;7.10;3.95;;;-0.10;99.90;;;;;;5059196;28;20044;-51
2024/01/08 04:30:27;;;;;;;7.47;4.13;;;-0.10;99.90;;;;;;5055349;28;20044;-49
2024/01/08 04:32:53;;;;;;;7.53;4.53;;;-0.20;99.90;;;;;;5052480;28;20037;-51
2024/01/08 04:35:20;;;;;;;10.25;4.93;;;-0.10;99.90;;;;;;5038949;28;20049;-50
2024/01/08 04:37:45;;;;;;;8.35;4.22;;;-0.10;99.90;;;;;;5052385;28;20041;-49
2024/01/08 04:40:11;;;;;;;9.73;5.07;;;-0.10;99.90;;;;;;5056830;28;20447;-47
2024/01/08 04:42:37;;;;;;;6.53;4.30;;;-0.10;99.90;;;;;;5055136;28;20621;-48
2024/01/08 04:45:03;;;;;;;7.03;4.05;;;-0.10;99.90;;;;;;5057822;28;20028;-47
2024/01/08 04:47:29;;;;;;;12.73;5.00;;;-0.20;99.90;;;;;;5058077;28;20045;-49
2024/01/08 04:49:54;;;;;;;6.50;4.47;;;-0.20;99.90;;;;;;5058501;28;20489;-50
2024/01/08 04:52:20;;;;;;;9.05;4.00;;;-0.20;99.90;;;;;;5061709;28;20044;-51
2024/01/08 04:54:46;;;;;;;6.63;3.80;;;-0.20;99.90;;;;;;5058231;28;20029;-47
2024/01/08 04:57:12;;;;;;;5.70;3.63;;;-0.20;99.90;;;;;;5050282;28;20071;-49
2024/01/08 04:59:42;;;;;;;6.38;3.80;;;-0.30;99.90;;;;;;5058744;28;20083;-48
2024/01/08 05:02:08;;;;;;;7.75;3.58;;;-0.30;99.90;;;;;;5057652;28;20039;-47
2024/01/08 05:04:34;;;;;;;4.53;3.50;;;-0.40;99.90;;;;;;5062089;28;20473;-47
2024/01/08 05:07:00;;;;;;;4.70;3.58;;;-0.50;99.90;;;;;;5044207;28;20040;-49
2024/01/08 05:09:26;;;;;;;5.28;3.45;;;-0.50;99.90;;;;;;5054854;28;20540;-49
2024/01/08 05:11:52;;;;;;;4.85;3.13;;;-0.60;99.90;;;;;;5057111;28;20135;-49
2024/01/08 05:14:18;;;;;;;8.20;3.50;;;-0.60;99.90;;;;;;5057345;28;20087;-48
2024/01/08 05:16:43;;;;;;;5.90;3.22;;;-0.60;99.90;;;;;;5057578;28;20119;-50
2024/01/08 05:19:09;;;;;;;5.70;3.15;;;-0.70;99.90;;;;;;5059392;28;20521;-49
2024/01/08 05:21:35;;;;;;;4.38;3.17;;;-0.70;99.90;;;;;;5060747;28;20044;-48
2024/01/08 05:24:01;;;;;;;6.63;3.65;;;-0.70;99.90;;;;;;5055907;28;20515;-49
2024/01/08 05:26:26;;;;;;;7.00;3.63;;;-0.80;99.90;;;;;;5055831;28;20109;-49
2024/01/08 05:28:52;;;;;;;5.68;3.60;;;-0.80;99.90;;;;;;5048885;28;20145;-47
2024/01/08 05:31:18;;;;;;;5.30;3.38;;;-0.90;99.90;;;;;;5057261;28;20041;-50
2024/01/08 05:33:44;;;;;;;6.70;3.67;;;-0.90;99.90;;;;;;5059188;28;20153;-49
2024/01/08 05:36:10;;;;;;;5.57;3.28;;;-0.90;99.90;;;;;;5060875;28;20043;-52
2024/01/08 05:38:36;;;;;;;8.18;3.30;;;-0.90;99.90;;;;;;5059743;28;20280;-47
2024/01/08 05:41:03;;;;;;;5.72;3.60;;;-0.90;99.90;;;;;;5056935;28;20090;-47
2024/01/08 05:43:28;;;;;;;5.38;2.97;;;-0.90;99.90;;;;;;5057174;28;20844;-49
2024/01/08 05:45:54;;;;;;;6.55;3.72;;;-0.90;99.90;;;;;;5052346;28;20037;-50
2024/01/08 05:48:20;;;;;;;6.07;3.47;;;-0.90;99.90;;;;;;5062403;28;20050;-50
2024/01/08 05:50:48;;;;;;;7.57;3.50;;;-0.90;99.90;;;;;;5061353;28;20033;-48
2024/01/08 05:53:14;;;;;;;5.13;3.60;;;-1.00;99.90;;;;;;5061160;28;20033;-51
2024/01/08 05:55:40;;;;;;;7.93;4.15;;;-0.90;99.90;;;;;;5062218;28;20051;-46
2024/01/08 05:58:06;;;;;;;5.60;3.22;;;-1.00;99.90;;;;;;5058589;28;20272;-50
2024/01/08 06:00:31;;;;;;;4.47;3.42;;;-1.00;99.90;;;;;;5054868;28;20160;-48
2024/01/08 06:02:57;;;;;;;7.88;3.78;;;-1.00;99.90;;;;;;5056921;28;20470;-52
2024/01/08 06:05:23;;;;;;;9.00;4.10;;;-1.00;99.90;;;;;;5062271;28;20064;-52
2024/01/08 06:07:49;;;;;;;8.45;3.95;;;-1.10;99.90;;;;;;5060362;28;20477;-50
2024/01/08 06:10:15;;;;;;;7.40;4.45;;;-1.10;99.90;;;;;;5060733;28;20307;-48
2024/01/08 06:12:41;;;;;;;7.95;4.15;;;-1.10;99.90;;;;;;5060683;28;20051;-47
2024/01/08 06:15:07;;;;;;;7.70;3.63;;;-1.10;99.90;;;;;;5060859;28;20037;-48
2024/01/08 06:17:33;;;;;;;7.15;4.18;;;-1.10;99.90;;;;;;5055794;28;20031;-50
2024/01/08 06:19:59;;;;;;;7.30;3.78;;;-1.10;99.90;;;;;;5062632;28;20044;-49
2024/01/08 06:22:26;;;;;;;7.57;4.00;;;-1.10;99.90;;;;;;5052482;28;20392;-48
2024/01/08 06:24:52;;;;;;;8.00;4.10;;;-1.00;99.90;;;;;;5049231;28;20044;-47
2024/01/08 06:27:18;;;;;;;6.53;3.58;;;-1.00;99.90;;;;;;5051891;28;20044;-50
2024/01/08 06:29:43;;;;;;;8.68;4.10;;;-0.90;99.90;;;;;;5050331;28;20515;-50
2024/01/08 06:32:10;;;;;;;10.90;5.60;;;-0.90;99.90;;;;;;5051885;28;20467;-51
2024/01/08 06:34:35;;;;;;;8.75;3.50;;;-0.90;99.90;;;;;;5056984;28;20048;-50
2024/01/08 06:37:01;;;;;;;8.98;3.92;;;-0.80;99.90;;;;;;5055970;28;20130;-50
2024/01/08 06:39:27;;;;;;;8.43;4.43;;;-0.80;99.90;;;;;;5050606;28;20032;-48
2024/01/08 06:41:53;;;;;;;8.27;3.90;;;-0.80;99.90;;;;;;5050830;28;20465;-50
2024/01/08 06:44:18;;;;;;;9.48;3.63;;;-0.70;99.90;;;;;;5045460;28;20049;-50
2024/01/08 06:46:44;;;;;;;10.10;3.38;;;-0.70;99.90;;;;;;5064126;28;20055;-49
2024/01/08 06:49:10;;;;;;;11.10;3.50;;;-0.70;99.90;;;;;;5058031;28;20130;-47
2024/01/08 06:51:42;;;;;;;8.75;3.60;;;-0.60;99.90;;;;;;5061283;28;20037;-48
2024/01/08 06:54:07;;;;;;;7.13;3.83;;;-0.60;99.90;;;;;;5058188;28;20071;-47
2024/01/08 06:56:34;;;;;;;8.18;3.83;;;-0.60;99.90;;;;;;5062036;28;20131;-47
2024/01/08 06:59:04;;;;;;;7.72;4.10;;;-0.50;99.90;;;;;;5061209;28;20040;-48
2024/01/08 07:01:32;;;;;;;8.55;3.60;;;-0.50;99.90;;;;;;5061247;28;20050;-48
2024/01/08 07:03:57;;;;;;;8.20;3.50;;;-0.50;99.90;;;;;;5057808;28;20132;-47
2024/01/08 07:06:24;;;;;;;7.88;3.58;;;-0.50;99.90;;;;;;5055475;28;20036;-48
2024/01/08 07:08:49;;;;;;;8.98;3.45;;;-0.50;99.90;;;;;;5057785;28;20123;-48
2024/01/08 07:11:25;;;;;;;7.45;3.88;;;-0.50;99.90;;;;;;5046796;28;20394;-47
2024/01/08 07:13:51;;;;;;;10.88;3.58;;;-0.40;99.90;;;;;;5054948;28;20040;-48
2024/01/08 07:16:17;;;;;;;7.07;3.90;;;-0.40;99.90;;;;;;5059519;28;20298;-47
2024/01/08 07:18:44;;;;;;;11.27;4.75;;;-0.40;99.90;;;;;;5058602;28;20052;-47
2024/01/08 07:21:11;;;;;;;5.32;3.22;;;-0.40;99.90;;;;;;5060788;28;20046;-50
2024/01/08 07:23:37;;;;;;;13.65;3.95;;;-0.30;99.90;;;;;;5056986;28;20805;-48
2024/01/08 07:26:03;;;;;;;5.90;3.60;;;-0.30;99.90;;;;;;5057190;28;20110;-50
2024/01/08 07:28:29;;;;;;;8.90;3.92;;;-0.30;99.90;;;;;;5059476;28;20032;-49
2024/01/08 07:30:55;;;;;;;8.18;3.33;;;-0.30;99.90;;;;;;5056072;28;20206;-47
2024/01/08 07:33:21;;;;;;;10.20;3.92;;;-0.10;99.90;;;;;;5059212;28;20051;-49
2024/01/08 07:35:47;;;;;;;8.40;3.70;;;-0.20;99.90;;;;;;5061255;28;20047;-48
2024/01/08 07:38:13;;;;;;;9.90;3.72;;;-0.20;99.90;;;;;;5058710;28;20126;-50
2024/01/08 07:40:39;;;;;;;7.95;3.75;;;-0.20;99.90;;;;;;5059778;28;20127;-48
2024/01/08 07:43:04;;;;;;;7.30;3.45;;;-0.20;99.90;;;;;;5058553;28;20033;-47
2024/01/08 07:45:30;;;;;;;8.38;3.92;;;-0.20;99.90;;;;;;5058209;28;20777;-48
2024/01/08 07:47:59;;;;;;;8.13;3.88;;;-0.20;99.90;;;;;;5057571;28;20406;-49
2024/01/08 07:50:25;;;;;;;12.95;4.35;;;-0.20;99.90;;;;;;5058963;28;20037;-51
2024/01/08 07:52:51;;;;;;;8.63;3.58;;;-0.20;99.90;;;;;;5055515;28;20248;-50
2024/01/08 07:55:17;;;;;;;8.93;3.42;;;-0.20;99.90;;;;;;5061012;28;20040;-48
2024/01/08 07:57:42;;;;;;;6.20;3.38;;;-0.10;99.90;;;;;;5059822;28;20046;-49
2024/01/08 08:00:11;;;;;;;6.47;2.97;;;-0.10;99.90;;;;;;5060050;28;20032;-47
2024/01/08 08:02:40;;;;;;;8.38;3.35;;;-0.10;99.90;;;;;;5053794;28;20597;-47
2024/01/08 08:05:06;;;;;;;;;;;-0.10;99.90;;;;;;5059635;28;20044;-49
2024/01/08 08:07:33;;;;;;;7.13;3.83;;;-0.10;99.90;;;;;;5060816;28;19965;-48
2024/01/08 08:09:59;;;;;;;7.90;3.58;;;0.00;99.90;;;;;;5060707;28;20032;-49
2024/01/08 08:12:24;;;;;;;11.90;3.13;;;0.00;99.90;;;;;;5060593;28;20372;-47
2024/01/08 08:14:50;;;;;;;10.73;3.60;;;0.00;99.90;;;;;;5058831;28;20496;-50
2024/01/08 08:17:16;;;;;;;7.18;3.22;;;0.10;99.90;;;;;;5060620;28;20347;-50
2024/01/08 08:19:43;;;;;;;6.95;3.47;;;0.10;99.90;;;;;;5060107;28;20471;-48
2024/01/08 08:22:12;;;;;;;10.18;3.65;;;0.10;99.90;;;;;;5058038;28;20036;-49
2024/01/08 08:24:41;;;;;;;6.28;3.42;;;0.20;99.90;;;;;;5058514;28;20044;-49
2024/01/08 08:27:11;;;;;;;;;;;0.10;99.90;;;;;;5061047;28;20036;-51
2024/01/08 08:29:45;;;;;;;6.13;2.97;;;0.20;99.90;;;;;;5060349;28;19927;-47
2024/01/08 08:32:11;;;;;;;8.10;3.10;;;0.20;99.90;;;;;;5048215;28;20792;-48
2024/01/08 08:34:39;;;;;;;6.90;3.17;;;0.20;99.90;;;;;;5059583;28;20542;-50
2024/01/08 08:37:08;;;;;;;9.43;2.88;;;0.20;99.90;;;;;;5059686;28;20391;-52
2024/01/08 08:39:34;;;;;;;;;;;0.20;99.90;;;;;;5061080;28;20058;-49
2024/01/08 08:41:59;;;;;;;5.43;3.00;;;0.20;99.90;;;;;;5060036;28;20383;-49
2024/01/08 08:44:25;;;;;;;6.65;3.10;;;0.20;99.90;;;;;;5057307;28;20456;-51
2024/01/08 08:46:51;;;;;;;6.72;3.05;;;0.30;99.90;;;;;;5054592;28;20093;-48
2024/01/08 08:49:16;;;;;;;4.93;2.75;;;0.30;99.90;;;;;;5060220;28;20033;-45
2024/01/08 08:51:43;;;;;;;9.88;3.35;;;0.30;99.90;;;;;;5057713;28;20075;-50
2024/01/08 08:54:09;;;;;;;10.15;2.85;;;0.30;99.90;;;;;;5058486;28;20090;-48
2024/01/08 08:56:34;;;;;;;12.50;3.47;;;0.30;99.90;;;;;;5060513;28;20115;-49
2024/01/08 08:59:00;;;;;;;9.68;3.58;;;0.30;99.90;;;;;;5059985;28;20037;-47
2024/01/08 09:01:27;;;;;;;6.32;2.60;;;0.30;99.90;;;;;;5058543;28;20155;-50
2024/01/08 09:03:53;;;;;;;9.80;2.92;;;0.30;99.90;;;;;;5058579;28;20120;-48
2024/01/08 09:06:27;;;;;;;6.63;2.83;;;0.40;99.90;;;;;;5042043;28;20036;-48
2024/01/08 09:08:54;;;;;;;10.65;3.13;;;0.40;99.90;;;;;;5059970;28;20558;-48
2024/01/08 09:11:20;;;;;;;6.70;3.03;;;0.40;99.90;;;;;;5059024;28;20040;-47
2024/01/08 09:13:49;;;;;;;6.55;3.08;;;0.40;99.90;;;;;;5058628;28;20040;-47
2024/01/08 09:16:15;;;;;;;6.15;2.75;;;0.50;99.90;;;;;;5058391;28;20041;-47
2024/01/08 09:18:42;;;;;;;6.70;2.60;;;0.50;99.90;;;;;;5058557;28;20675;-48
2024/01/08 09:21:11;;;;;;;5.88;2.92;;;0.50;99.90;;;;;;5055460;28;20585;-47
2024/01/08 09:23:41;;;;;;;6.05;2.55;;;0.50;99.90;;;;;;5054605;28;20093;-47
2024/01/08 09:26:07;;;;;;;6.97;2.50;;;0.60;99.90;;;;;;5056502;28;20116;-48
2024/01/08 09:28:33;;;;;;;8.32;3.25;;;0.60;99.90;;;;;;5055574;28;20656;-48
2024/01/08 09:31:00;;;;;;;7.32;2.50;;;0.60;99.90;;;;;;5055859;28;20404;-47
2024/01/08 09:33:27;;;;;;;6.43;2.58;;;0.60;99.90;;;;;;5054857;28;20045;-47
2024/01/08 09:35:52;;;;;;;4.32;2.40;;;0.60;99.90;;;;;;5058282;28;20036;-48
2024/01/08 09:38:18;;;;;;;4.95;2.10;;;0.60;99.90;;;;;;5058196;28;20063;-47
2024/01/08 09:40:45;;;;;;;7.78;2.92;;;0.60;99.90;;;;;;5049586;28;20511;-48
2024/01/08 09:43:14;;;;;;;5.18;2.50;;;0.70;99.90;;;;;;5059473;28;20044;-50
2024/01/08 09:46:04;;;;;;;4.57;2.30;;;0.60;99.90;;;;;;5055988;28;20036;-49
2024/01/08 09:48:31;;;;;;;3.27;1.97;;;0.80;99.90;;;;;;5059468;28;20051;-49
2024/01/08 09:51:01;;;;;;;7.75;2.55;;;0.80;99.90;;;;;;5058569;28;20419;-47
2024/01/08 09:53:31;;;;;;;4.38;2.47;;;0.90;99.90;;;;;;5040648;28;20051;-46
2024/01/08 09:55:58;;;;;;;6.22;2.53;;;0.90;99.90;;;;;;5058772;28;20040;-48
2024/01/08 09:58:25;;;;;;;4.85;2.13;;;0.90;99.90;;;;;;5058079;28;20469;-48
2024/01/08 10:00:52;;;;;;;4.45;2.10;;;0.80;99.90;;;;;;5059009;28;20048;-48
2024/01/08 10:03:18;;;;;;;7.57;2.33;;;0.80;99.90;;;;;;5061342;28;20045;-49
2024/01/08 10:05:44;;;;;;;5.30;2.80;;;0.70;99.90;;;;;;5045979;28;20067;-48
2024/01/08 10:08:10;;;;;;;6.47;2.80;;;0.70;99.90;;;;;;5056560;28;20036;-52
2024/01/08 10:10:36;;;;;;;4.82;2.30;;;0.70;99.90;;;;;;5061471;28;20454;-49
2024/01/08 10:13:03;;;;;;;7.43;2.75;;;0.70;99.90;;;;;;5056758;28;20695;-48
2024/01/08 10:15:29;;;;;;;4.68;2.50;;;0.80;99.90;;;;;;5059477;28;20106;-47
2024/01/08 10:17:55;;;;;;;6.97;2.65;;;0.80;99.90;;;;;;5061057;28;20036;-47
2024/01/08 10:20:21;;;;;;;6.63;2.83;;;0.80;99.90;;;;;;5049409;28;20040;-50
2024/01/08 10:23:09;;;;;;;6.70;2.72;;;0.80;99.90;;;;;;5055380;28;20036;-50
2024/01/08 10:25:37;;;;;;;7.90;2.55;;;0.70;99.90;;;;;;5057614;28;20071;-51
2024/01/08 10:28:07;;;;;;;6.80;2.80;;;0.70;99.90;;;;;;5060882;28;20040;-48
2024/01/08 10:30:33;;;;;;;7.47;3.00;;;0.70;99.90;;;;;;5055795;28;20067;-51
2024/01/08 10:33:02;;;;;;;6.18;2.50;;;0.70;99.90;;;;;;5061229;28;20460;-51
2024/01/08 10:35:31;;;;;;;;;;;0.80;99.90;;;;;;5058375;28;20044;-47
2024/01/08 10:38:00;;;;;;;5.55;2.80;;;0.80;99.90;;;;;;5058580;28;19928;-52
2024/01/08 10:40:28;;;;;;;8.52;2.88;;;0.90;99.90;;;;;;5059735;28;20036;-47
2024/01/08 10:42:54;;;;;;;6.22;2.83;;;1.00;99.90;;;;;;5060251;28;20147;-46
2024/01/08 10:45:20;;;;;;;8.70;2.63;;;1.10;99.90;;;;;;5059708;28;20051;-46
2024/01/08 10:48:10;;;;;;;7.93;3.22;;;1.00;99.90;;;;;;5055842;28;20391;-47
2024/01/08 10:50:38;;;;;;;6.33;2.93;;;1.00;99.90;;;;;;5052373;28;20079;-48
2024/01/08 10:53:13;;;;;;;6.88;2.70;;;1.10;99.90;;;;;;5045296;28;20041;-53
2024/01/08 10:55:41;;;;;;;3.95;2.78;;;1.00;99.90;;;;;;5064626;28;20037;-50
2024/01/08 10:58:11;;;;;;;3.80;2.50;;;1.00;99.90;;;;;;5056073;28;20597;-48
2024/01/08 11:00:38;;;;;;;4.82;2.13;;;1.10;99.90;;;;;;5058285;28;20146;-48
2024/01/08 11:03:04;;;;;;;3.72;2.40;;;1.10;99.90;;;;;;5058037;28;20060;-50
2024/01/08 11:05:33;;;;;;;3.42;2.28;;;1.10;99.90;;;;;;5055234;28;20029;-50
2024/01/08 11:08:02;;;;;;;4.95;2.60;;;1.10;99.90;;;;;;5056610;28;20548;-48
2024/01/08 11:10:29;;;;;;;6.30;2.47;;;1.10;99.90;;;;;;5059707;28;20253;-48
2024/01/08 11:12:56;;;;;;;5.40;3.08;;;1.20;99.90;;;;;;5056510;28;20124;-51
2024/01/08 11:15:26;;;;;;;6.30;2.47;;;1.20;99.90;;;;;;5057234;28;20040;-49
2024/01/08 11:17:54;;;;;;;5.20;2.33;;;1.30;99.90;;;;;;5055208;28;20354;-47
2024/01/08 11:20:38;;;;;;;3.95;2.20;;;1.30;99.90;;;;;;5056593;28;20086;-47
2024/01/08 11:23:24;;;;;;;3.60;2.28;;;1.30;99.90;;;;;;5061160;28;20449;-49
2024/01/08 11:25:50;;;;;;;3.35;2.00;;;1.40;99.90;;;;;;5058084;28;20048;-49
2024/01/08 11:28:16;;;;;;;3.65;2.65;;;1.40;99.90;;;;;;5057882;28;20036;-48
2024/01/08 11:30:42;;;;;;;6.68;2.50;;;1.40;99.90;;;;;;5060467;28;20075;-47
2024/01/08 11:33:45;;;;;;;4.22;2.40;;;1.40;99.90;;;;;;5057089;28;20033;-46
2024/01/08 11:36:17;;;;;;;5.07;3.00;;;1.50;99.90;;;;;;5041586;28;20316;-49
2024/01/08 11:39:07;;;;;;;4.72;2.78;;;1.40;99.90;;;;;;5055741;28;20070;-47
2024/01/08 11:41:34;;;;;;;4.03;2.17;;;1.40;99.90;;;;;;5059246;28;20028;-48
2024/01/08 11:44:00;;;;;;;3.95;2.38;;;1.40;99.90;;;;;;5056131;28;20467;-49
2024/01/08 11:46:26;;;;;;;6.47;2.70;;;1.30;99.90;;;;;;5058657;28;20474;-47
2024/01/08 11:48:52;;;;;;;5.55;2.40;;;1.30;99.90;;;;;;5055841;28;20483;-48
2024/01/08 11:51:20;;;;;;;6.07;2.60;;;1.30;99.90;;;;;;5059790;28;20064;-47
2024/01/08 11:53:50;;;;;;;9.03;2.93;;;1.40;99.90;;;;;;5061332;28;20059;-50
2024/01/08 11:56:17;;;;;;;6.28;3.03;;;1.60;99.90;;;;;;5053367;28;20138;-50
2024/01/08 11:58:47;;;;;;;5.78;2.45;;;1.60;99.90;;;;;;5056069;28;20040;-47
2024/01/08 12:01:19;;;;;;;4.57;2.40;;;1.80;99.90;;;;;;5059572;28;20711;-49
2024/01/08 12:03:45;;;;;;;3.30;1.85;;;1.70;99.90;;;;;;5045464;28;20056;-50
2024/01/08 12:06:12;;;;;;;3.10;2.20;;;1.70;99.90;;;;;;5061666;28;20088;-49
2024/01/08 12:08:38;;;;;;;2.95;2.00;;;1.70;99.90;;;;;;5059826;28;20508;-48
2024/01/08 12:11:05;;;;;;;2.90;1.92;;;1.70;99.90;;;;;;5058753;28;20109;-47
2024/01/08 12:13:31;;;;;;;4.22;2.03;;;1.80;99.90;;;;;;5059240;28;20048;-47
2024/01/08 12:15:57;;;;;;;3.08;2.25;;;1.80;99.90;;;;;;5057506;28;20075;-49
2024/01/08 12:18:23;;;;;;;4.45;2.45;;;1.70;99.90;;;;;;5054310;28;20106;-49
2024/01/08 12:20:52;;;;;;;5.30;2.78;;;1.70;99.90;;;;;;5051656;28;20480;-49
2024/01/08 12:23:18;;;;;;;4.65;2.97;;;1.80;99.90;;;;;;5057038;28;20075;-48
2024/01/08 12:25:49;;;;;;;5.35;2.22;;;1.70;99.90;;;;;;5052181;28;20535;-50
2024/01/08 12:28:14;;;;;;;4.63;2.83;;;1.70;99.90;;;;;;5052246;28;20049;-50
2024/01/08 12:30:40;;;;;;;5.82;2.83;;;1.70;99.90;;;;;;5052892;28;20051;-48
2024/01/08 12:33:07;;;;;;;4.53;2.58;;;1.70;99.90;;;;;;5051280;28;20528;-48
2024/01/08 12:35:36;;;;;;;5.50;2.75;;;1.70;99.90;;;;;;5054506;28;21500;-47
2024/01/08 12:38:02;;;;;;;8.40;3.75;;;1.70;99.90;;;;;;5060026;28;20042;-49
2024/01/08 12:40:28;;;;;;;15.88;3.25;;;1.70;99.90;;;;;;5058560;28;20495;-48
2024/01/08 12:42:55;;;;;;;4.68;2.92;;;1.70;99.90;;;;;;5058543;28;20037;-48
2024/01/08 12:45:20;;;;;;;6.28;3.05;;;1.60;99.90;;;;;;5054969;28;20048;-47
2024/01/08 12:47:46;;;;;;;5.55;2.40;;;1.60;99.90;;;;;;5052711;28;20040;-49